createdAt,value
2018-03-27T00:01:38.312Z,13.46
2018-03-27T00:07:29.263Z,17.4
2018-03-27T00:13:20.112Z,16.36
2018-03-27T00:19:10.997Z,14.72
2018-03-27T00:25:01.913Z,15.3
2018-03-27T00:30:52.811Z,16.02
2018-03-27T00:36:43.704Z,14.79
2018-03-27T00:42:34.552Z,13.14
2018-03-27T00:48:25.450Z,13.83
2018-03-27T00:54:16.391Z,11.15
2018-03-27T01:00:07.312Z,11.98
2018-03-27T01:05:58.149Z,11.59
2018-03-27T01:11:49.078Z,14.82
2018-03-27T01:17:39.925Z,17.76
2018-03-27T01:23:30.875Z,18.57
2018-03-27T01:29:21.697Z,19.39
2018-03-27T01:35:12.618Z,20.2
2018-03-27T01:41:03.567Z,17.54
2018-03-27T01:46:54.408Z,14.36
2018-03-27T01:52:45.333Z,12.84
2018-03-27T01:58:36.179Z,17.54
2018-03-27T02:04:27.088Z,15.5
2018-03-27T02:10:17.976Z,13.8
2018-03-27T02:16:08.890Z,14.22
2018-03-27T02:21:59.760Z,14.73
2018-03-27T02:27:50.661Z,13.76
2018-03-27T02:33:41.594Z,13.44
2018-03-27T02:39:32.452Z,14.93
2018-03-27T02:45:23.346Z,14.82
2018-03-27T02:51:14.251Z,14.6
2018-03-27T02:57:05.149Z,12.31
2018-03-27T03:02:56.071Z,13.32
2018-03-27T03:08:46.910Z,12.5
2018-03-27T03:14:37.818Z,13.44
2018-03-27T03:20:28.728Z,13.52
2018-03-27T03:26:19.583Z,13
2018-03-27T03:32:10.529Z,12.81
2018-03-27T03:38:01.356Z,11.68
2018-03-27T03:43:52.270Z,12.02
2018-03-27T03:49:43.131Z,12.4
2018-03-27T03:55:34.052Z,13.45
2018-03-27T04:01:24.931Z,11.95
2018-03-27T04:07:15.881Z,10.83
2018-03-27T04:13:06.734Z,11.36
2018-03-27T04:18:57.601Z,11.64
2018-03-27T04:24:48.519Z,14.76
2018-03-27T04:30:39.399Z,16.39
2018-03-27T04:36:30.337Z,15.86
2018-03-27T04:42:21.191Z,15.16
2018-03-27T04:48:12.078Z,14.55
2018-03-27T04:54:02.978Z,14.43
2018-03-27T04:59:53.857Z,15.35
2018-03-27T05:05:44.771Z,15.64
2018-03-27T05:11:35.713Z,15.81
2018-03-27T05:17:26.553Z,18.78
2018-03-27T05:23:17.430Z,30.6
2018-03-27T05:29:08.340Z,15.6
2018-03-27T05:34:59.240Z,16.44
2018-03-27T05:40:50.122Z,15.73
2018-03-27T05:46:41.070Z,15.54
2018-03-27T05:52:31.882Z,16.29
2018-03-27T05:58:22.768Z,17.58
2018-03-27T06:04:13.718Z,19.66
2018-03-27T06:10:04.561Z,15.33
2018-03-27T06:15:55.458Z,15.13
2018-03-27T06:21:46.390Z,14.35
2018-03-27T06:27:37.334Z,17
2018-03-27T06:33:28.120Z,18.74
2018-03-27T06:39:18.991Z,24.73
2018-03-27T06:45:09.883Z,24.12
2018-03-27T06:51:00.734Z,18.84
2018-03-27T06:56:51.620Z,27.75
2018-03-27T07:02:42.596Z,29.63
2018-03-27T07:08:33.490Z,35.97
2018-03-27T07:14:24.317Z,37.05
2018-03-27T07:20:15.202Z,35.64
2018-03-27T07:26:06.146Z,32.22
2018-03-27T07:31:56.988Z,34.17
2018-03-27T07:37:47.897Z,30.25
2018-03-27T07:43:38.765Z,29.43
2018-03-27T07:49:29.694Z,29.23
2018-03-27T07:55:20.517Z,29.16
2018-03-27T08:01:11.415Z,31.58
2018-03-27T08:07:02.307Z,29.34
2018-03-27T08:12:53.251Z,26.42
2018-03-27T08:18:44.071Z,29.65
2018-03-27T08:24:35.026Z,40.77
2018-03-27T08:30:25.835Z,42.32
2018-03-27T08:36:16.756Z,37.23
2018-03-27T08:42:07.693Z,34.76
2018-03-27T08:47:58.498Z,32.38
2018-03-27T08:53:49.427Z,32.4
2018-03-27T08:59:40.369Z,31.54
2018-03-27T09:05:31.245Z,33.94
2018-03-27T09:11:22.104Z,30.4
2018-03-27T09:17:13.017Z,28.5
2018-03-27T09:23:03.862Z,28.58
2018-03-27T09:28:54.867Z,23.65
2018-03-27T09:34:45.675Z,21.64
2018-03-27T09:40:36.554Z,24.26
2018-03-27T09:46:27.440Z,23.17
2018-03-27T09:52:18.392Z,13.61
2018-03-27T09:58:09.260Z,17.9
2018-03-27T10:04:00.176Z,18.08
2018-03-27T10:09:51.060Z,23.01
2018-03-27T10:15:41.936Z,22.51
2018-03-27T10:21:32.803Z,22.34
2018-03-27T10:27:23.813Z,20.37
2018-03-27T10:33:14.618Z,12.26
2018-03-27T10:39:05.507Z,18.54
2018-03-27T10:44:56.393Z,20.62
2018-03-27T10:50:47.292Z,16.12
2018-03-27T10:56:38.194Z,18.25
2018-03-27T11:02:29.123Z,16.81
2018-03-27T11:08:20.006Z,17.53
2018-03-27T11:14:10.875Z,17.4
2018-03-27T11:20:01.800Z,17.94
2018-03-27T11:25:52.684Z,15.25
2018-03-27T11:31:43.611Z,18.41
2018-03-27T11:37:34.498Z,16.79
2018-03-27T11:43:25.388Z,17.3
2018-03-27T11:49:16.280Z,15.42
2018-03-27T11:55:07.146Z,15.72
2018-03-27T12:00:58.105Z,18.14
2018-03-27T12:06:48.986Z,16.59
2018-03-27T12:12:39.844Z,16.08
2018-03-27T12:18:30.791Z,19.3
2018-03-27T12:24:21.617Z,18.17
2018-03-27T12:30:12.557Z,14.66
2018-03-27T12:36:03.463Z,15.31
2018-03-27T12:41:54.336Z,15.31
2018-03-27T12:47:45.288Z,13.03
2018-03-27T12:53:36.135Z,14.08
2018-03-27T12:59:27.085Z,12.21
2018-03-27T13:05:17.990Z,13.89
2018-03-27T13:11:08.851Z,14.75
2018-03-27T13:16:59.749Z,12.09
2018-03-27T13:22:50.641Z,14.55
2018-03-27T13:28:41.579Z,12.66
2018-03-27T13:34:32.405Z,15.31
2018-03-27T13:40:23.323Z,15.31
2018-03-27T13:46:14.252Z,15.26
2018-03-27T13:52:05.136Z,16.64
2018-03-27T13:57:56.037Z,18.04
2018-03-27T14:03:46.968Z,18.49
2018-03-27T14:09:37.894Z,19.33
2018-03-27T14:15:28.764Z,17.08
2018-03-27T14:21:19.660Z,19.4
2018-03-27T14:27:10.567Z,17.92
2018-03-27T14:33:01.419Z,17.68
2018-03-27T14:38:52.351Z,12.7
2018-03-27T14:44:43.317Z,14.23
2018-03-27T14:50:34.138Z,15.2
2018-03-27T14:56:25.031Z,13.35
2018-03-27T15:02:15.952Z,13.98
2018-03-27T15:08:06.854Z,12.3
2018-03-27T15:13:57.754Z,12.02
2018-03-27T15:19:48.636Z,10.23
2018-03-27T15:25:39.509Z,9.74
2018-03-27T15:31:30.426Z,9.59
2018-03-27T15:37:21.365Z,9.94
2018-03-27T15:43:12.204Z,7.57
2018-03-27T15:49:03.106Z,7.43
2018-03-27T15:54:54.073Z,6.1
2018-03-27T16:00:44.924Z,9.04
2018-03-27T16:06:35.835Z,8.92
2018-03-27T16:12:26.708Z,8.24
2018-03-27T16:18:17.635Z,8.97
2018-03-27T16:24:08.519Z,10.44
2018-03-27T16:29:59.428Z,9.43
2018-03-27T16:35:50.311Z,11.34
2018-03-27T16:41:41.287Z,9.35
2018-03-27T16:47:32.124Z,9.77
2018-03-27T16:53:23.043Z,10.45
2018-03-27T16:59:13.956Z,10.18
2018-03-27T17:05:04.837Z,11.27
2018-03-27T17:10:55.725Z,10.82
2018-03-27T17:16:46.631Z,12.41
2018-03-27T17:22:37.492Z,13.64
2018-03-27T17:28:28.440Z,15.1
2018-03-27T17:34:19.317Z,19.36
2018-03-27T17:40:10.257Z,11.67
2018-03-27T17:46:01.119Z,12.08
2018-03-27T17:51:52.023Z,12.6
2018-03-27T17:57:42.916Z,12.8
2018-03-27T18:03:33.814Z,12.98
2018-03-27T18:09:25.269Z,13
2018-03-27T18:15:15.647Z,12.8
2018-03-27T18:21:06.538Z,15.93
2018-03-27T18:26:57.399Z,15.64
2018-03-27T18:32:48.297Z,16.67
2018-03-27T18:38:39.252Z,16.67
2018-03-27T18:44:30.142Z,17.84
2018-03-27T18:50:20.962Z,19.64
2018-03-27T18:56:11.879Z,16.75
2018-03-27T19:02:02.806Z,16.69
2018-03-27T19:07:53.716Z,21.1
2018-03-27T19:13:44.602Z,17.36
2018-03-27T19:19:36.143Z,19.52
2018-03-27T19:25:26.419Z,22.27
2018-03-27T19:31:17.283Z,26.06
2018-03-27T19:37:08.193Z,25.77
2018-03-27T19:42:59.080Z,23.11
2018-03-27T19:48:50.017Z,19.44
2018-03-27T19:54:40.922Z,18.19
2018-03-27T20:00:31.757Z,22.94
2018-03-27T20:06:22.670Z,27.25
2018-03-27T20:12:13.595Z,30.65
2018-03-27T20:18:04.435Z,36.02
2018-03-27T20:23:55.366Z,25.45
2018-03-27T20:29:46.211Z,24.22
2018-03-27T20:35:37.206Z,23.01
2018-03-27T20:41:28.038Z,22.64
2018-03-27T20:47:18.952Z,21.34
2018-03-27T20:53:09.856Z,23.93
2018-03-27T20:59:00.700Z,24.8
2018-03-27T21:04:51.557Z,20.29
2018-03-27T21:10:42.489Z,20.22
2018-03-27T21:16:33.348Z,19.61
2018-03-27T21:22:24.258Z,20.69
2018-03-27T21:28:15.166Z,20.59
2018-03-27T21:34:06.064Z,37.69
2018-03-27T21:39:56.934Z,36.79
2018-03-27T21:45:47.826Z,56.93
2018-03-27T21:51:38.755Z,23.78
2018-03-27T21:57:29.602Z,69.08
2018-03-27T22:03:20.517Z,57.44
2018-03-27T22:09:11.424Z,18.42
2018-03-27T22:15:02.367Z,22.4
2018-03-27T22:20:53.261Z,21.75
2018-03-27T22:26:44.093Z,22.47
2018-03-27T22:32:35.021Z,18.35
2018-03-27T22:38:25.871Z,17.87
2018-03-27T22:44:16.778Z,17.01
2018-03-27T22:50:07.696Z,19.65
2018-03-27T22:55:58.589Z,18.82
2018-03-27T23:01:49.523Z,18.98
2018-03-27T23:07:40.359Z,19.89
2018-03-27T23:13:31.228Z,20.58
2018-03-27T23:19:22.142Z,19.63
2018-03-27T23:25:13.021Z,19.58
2018-03-27T23:31:03.921Z,19.66
2018-03-27T23:36:54.824Z,18.96
2018-03-27T23:42:45.754Z,19.89
2018-03-27T23:48:36.667Z,19.34
2018-03-27T23:54:27.575Z,19.66
